sensor_id;sensor_type;location;lat;lon;timestamp;temperature;humidity
39033;DHT22;24794;51.982;5.878;2023-06-04T00:00:58;16.80;71.60
39033;DHT22;24794;51.982;5.878;2023-06-04T00:01:59;16.90;71.60
39033;DHT22;24794;51.982;5.878;2023-06-04T00:03:00;16.90;71.60
39033;DHT22;24794;51.982;5.878;2023-06-04T00:04:00;16.80;71.60
39033;DHT22;24794;51.982;5.878;2023-06-04T00:05:01;16.90;71.60
39033;DHT22;24794;51.982;5.878;2023-06-04T00:06:01;16.80;71.60
39033;DHT22;24794;51.982;5.878;2023-06-04T00:07:02;16.90;71.70
39033;DHT22;24794;51.982;5.878;2023-06-04T00:08:03;16.80;71.70
39033;DHT22;24794;51.982;5.878;2023-06-04T00:09:03;16.80;71.70
39033;DHT22;24794;51.982;5.878;2023-06-04T00:10:04;16.80;71.70
39033;DHT22;24794;51.982;5.878;2023-06-04T00:11:05;16.80;71.80
39033;DHT22;24794;51.982;5.878;2023-06-04T00:12:06;16.80;71.80
39033;DHT22;24794;51.982;5.878;2023-06-04T00:13:07;16.80;71.80
39033;DHT22;24794;51.982;5.878;2023-06-04T00:14:07;16.80;71.80
39033;DHT22;24794;51.982;5.878;2023-06-04T00:15:08;16.80;71.90
39033;DHT22;24794;51.982;5.878;2023-06-04T00:16:09;16.80;72.00
39033;DHT22;24794;51.982;5.878;2023-06-04T00:17:09;16.80;72.00
39033;DHT22;24794;51.982;5.878;2023-06-04T00:18:10;16.70;71.90
39033;DHT22;24794;51.982;5.878;2023-06-04T00:19:13;16.70;72.00
39033;DHT22;24794;51.982;5.878;2023-06-04T00:20:14;16.70;72.10
39033;DHT22;24794;51.982;5.878;2023-06-04T00:21:14;16.70;72.10
39033;DHT22;24794;51.982;5.878;2023-06-04T00:22:15;16.60;72.00
39033;DHT22;24794;51.982;5.878;2023-06-04T00:23:15;16.60;72.00
39033;DHT22;24794;51.982;5.878;2023-06-04T00:24:16;16.60;72.10
39033;DHT22;24794;51.982;5.878;2023-06-04T00:25:17;16.60;72.10
39033;DHT22;24794;51.982;5.878;2023-06-04T00:26:17;16.60;72.10
39033;DHT22;24794;51.982;5.878;2023-06-04T00:27:18;16.60;72.10
39033;DHT22;24794;51.982;5.878;2023-06-04T00:28:19;16.60;72.10
39033;DHT22;24794;51.982;5.878;2023-06-04T00:29:19;16.60;72.10
39033;DHT22;24794;51.982;5.878;2023-06-04T00:30:20;16.60;72.20
39033;DHT22;24794;51.982;5.878;2023-06-04T00:31:20;16.60;72.10
39033;DHT22;24794;51.982;5.878;2023-06-04T00:32:21;16.60;72.10
39033;DHT22;24794;51.982;5.878;2023-06-04T00:33:22;16.60;72.20
39033;DHT22;24794;51.982;5.878;2023-06-04T00:34:22;16.60;72.10
39033;DHT22;24794;51.982;5.878;2023-06-04T00:35:23;16.60;72.20
39033;DHT22;24794;51.982;5.878;2023-06-04T00:36:23;16.60;72.20
39033;DHT22;24794;51.982;5.878;2023-06-04T00:37:25;16.60;72.20
39033;DHT22;24794;51.982;5.878;2023-06-04T00:38:26;16.60;72.20
39033;DHT22;24794;51.982;5.878;2023-06-04T00:39:27;16.50;72.20
39033;DHT22;24794;51.982;5.878;2023-06-04T00:40:28;16.50;72.20
39033;DHT22;24794;51.982;5.878;2023-06-04T00:41:28;16.50;72.20
39033;DHT22;24794;51.982;5.878;2023-06-04T00:42:29;16.50;72.30
39033;DHT22;24794;51.982;5.878;2023-06-04T00:43:29;16.50;72.30
39033;DHT22;24794;51.982;5.878;2023-06-04T00:44:31;16.50;72.30
39033;DHT22;24794;51.982;5.878;2023-06-04T00:45:32;16.50;72.30
39033;DHT22;24794;51.982;5.878;2023-06-04T00:46:34;16.40;72.30
39033;DHT22;24794;51.982;5.878;2023-06-04T00:47:37;16.40;72.40
39033;DHT22;24794;51.982;5.878;2023-06-04T00:48:38;16.40;72.40
39033;DHT22;24794;51.982;5.878;2023-06-04T00:49:39;16.40;72.60
39033;DHT22;24794;51.982;5.878;2023-06-04T00:50:40;16.30;72.50
39033;DHT22;24794;51.982;5.878;2023-06-04T00:51:40;16.30;72.50
39033;DHT22;24794;51.982;5.878;2023-06-04T00:52:41;16.30;72.60
39033;DHT22;24794;51.982;5.878;2023-06-04T00:53:41;16.30;72.70
39033;DHT22;24794;51.982;5.878;2023-06-04T00:54:42;16.20;72.60
39033;DHT22;24794;51.982;5.878;2023-06-04T00:55:43;16.20;72.70
39033;DHT22;24794;51.982;5.878;2023-06-04T00:56:43;16.20;72.80
39033;DHT22;24794;51.982;5.878;2023-06-04T00:57:44;16.20;72.70
39033;DHT22;24794;51.982;5.878;2023-06-04T00:58:46;16.20;72.70
39033;DHT22;24794;51.982;5.878;2023-06-04T00:59:46;16.10;72.80
39033;DHT22;24794;51.982;5.878;2023-06-04T01:00:47;16.10;72.90
39033;DHT22;24794;51.982;5.878;2023-06-04T01:02:06;16.10;72.90
39033;DHT22;24794;51.982;5.878;2023-06-04T01:03:12;16.10;72.90
39033;DHT22;24794;51.982;5.878;2023-06-04T01:04:30;16.00;72.80
39033;DHT22;24794;51.982;5.878;2023-06-04T01:05:48;16.10;73.10
39033;DHT22;24794;51.982;5.878;2023-06-04T01:06:53;16.10;73.00
39033;DHT22;24794;51.982;5.878;2023-06-04T01:07:57;16.00;72.90
39033;DHT22;24794;51.982;5.878;2023-06-04T01:08:58;16.00;72.90
39033;DHT22;24794;51.982;5.878;2023-06-04T01:09:58;16.00;73.00
39033;DHT22;24794;51.982;5.878;2023-06-04T01:11:00;16.00;73.00
39033;DHT22;24794;51.982;5.878;2023-06-04T01:12:04;16.00;73.00
39033;DHT22;24794;51.982;5.878;2023-06-04T01:13:05;16.00;73.00
39033;DHT22;24794;51.982;5.878;2023-06-04T01:14:07;15.90;73.00
39033;DHT22;24794;51.982;5.878;2023-06-04T01:15:11;15.90;73.00
39033;DHT22;24794;51.982;5.878;2023-06-04T01:16:13;15.90;72.90
39033;DHT22;24794;51.982;5.878;2023-06-04T01:17:22;15.90;72.90
39033;DHT22;24794;51.982;5.878;2023-06-04T01:18:29;15.90;73.00
39033;DHT22;24794;51.982;5.878;2023-06-04T01:20:44;15.90;72.90
39033;DHT22;24794;51.982;5.878;2023-06-04T01:21:49;15.90;72.90
39033;DHT22;24794;51.982;5.878;2023-06-04T01:23:52;15.80;73.00
39033;DHT22;24794;51.982;5.878;2023-06-04T01:25:03;15.80;73.00
39033;DHT22;24794;51.982;5.878;2023-06-04T01:26:05;15.80;73.00
39033;DHT22;24794;51.982;5.878;2023-06-04T01:27:05;15.70;73.00
39033;DHT22;24794;51.982;5.878;2023-06-04T01:28:08;15.70;73.00
39033;DHT22;24794;51.982;5.878;2023-06-04T01:29:11;15.70;73.10
39033;DHT22;24794;51.982;5.878;2023-06-04T01:30:12;15.70;73.20
39033;DHT22;24794;51.982;5.878;2023-06-04T01:31:13;15.70;73.20
39033;DHT22;24794;51.982;5.878;2023-06-04T01:32:15;15.70;73.10
39033;DHT22;24794;51.982;5.878;2023-06-04T01:33:18;15.70;73.10
39033;DHT22;24794;51.982;5.878;2023-06-04T01:34:18;15.70;73.10
39033;DHT22;24794;51.982;5.878;2023-06-04T01:35:20;15.70;73.00
39033;DHT22;24794;51.982;5.878;2023-06-04T01:36:20;15.70;73.00
39033;DHT22;24794;51.982;5.878;2023-06-04T01:37:21;15.70;73.10
39033;DHT22;24794;51.982;5.878;2023-06-04T01:38:22;15.70;73.10
39033;DHT22;24794;51.982;5.878;2023-06-04T01:39:22;15.70;73.10
39033;DHT22;24794;51.982;5.878;2023-06-04T01:40:23;15.70;73.10
39033;DHT22;24794;51.982;5.878;2023-06-04T01:41:25;15.70;73.10
39033;DHT22;24794;51.982;5.878;2023-06-04T01:42:25;15.70;73.00
39033;DHT22;24794;51.982;5.878;2023-06-04T01:43:27;15.60;73.00
39033;DHT22;24794;51.982;5.878;2023-06-04T01:44:27;15.60;73.00
39033;DHT22;24794;51.982;5.878;2023-06-04T01:45:29;15.60;73.00
39033;DHT22;24794;51.982;5.878;2023-06-04T01:46:29;15.60;73.00
39033;DHT22;24794;51.982;5.878;2023-06-04T01:47:31;15.60;73.00
39033;DHT22;24794;51.982;5.878;2023-06-04T01:48:31;15.60;73.00
39033;DHT22;24794;51.982;5.878;2023-06-04T01:49:32;15.60;73.00
39033;DHT22;24794;51.982;5.878;2023-06-04T01:50:33;15.70;73.10
39033;DHT22;24794;51.982;5.878;2023-06-04T01:51:33;15.70;73.10
39033;DHT22;24794;51.982;5.878;2023-06-04T01:52:34;15.70;73.00
39033;DHT22;24794;51.982;5.878;2023-06-04T01:53:35;15.70;73.00
39033;DHT22;24794;51.982;5.878;2023-06-04T01:54:36;15.70;73.00
39033;DHT22;24794;51.982;5.878;2023-06-04T01:55:38;15.70;73.00
39033;DHT22;24794;51.982;5.878;2023-06-04T01:56:39;15.70;73.00
39033;DHT22;24794;51.982;5.878;2023-06-04T01:57:40;15.60;73.00
39033;DHT22;24794;51.982;5.878;2023-06-04T01:58:41;15.60;72.90
39033;DHT22;24794;51.982;5.878;2023-06-04T01:59:42;15.60;73.00
39033;DHT22;24794;51.982;5.878;2023-06-04T02:00:43;15.60;73.00
39033;DHT22;24794;51.982;5.878;2023-06-04T02:01:43;15.60;73.00
39033;DHT22;24794;51.982;5.878;2023-06-04T02:02:45;15.60;73.00
39033;DHT22;24794;51.982;5.878;2023-06-04T02:03:48;15.60;73.10
39033;DHT22;24794;51.982;5.878;2023-06-04T02:04:48;15.50;73.00
39033;DHT22;24794;51.982;5.878;2023-06-04T02:05:52;15.60;73.10
39033;DHT22;24794;51.982;5.878;2023-06-04T02:06:52;15.60;73.10
39033;DHT22;24794;51.982;5.878;2023-06-04T02:07:52;15.60;73.10
39033;DHT22;24794;51.982;5.878;2023-06-04T02:08:53;15.60;73.20
39033;DHT22;24794;51.982;5.878;2023-06-04T02:09:54;15.50;73.10
39033;DHT22;24794;51.982;5.878;2023-06-04T02:10:55;15.50;73.20
39033;DHT22;24794;51.982;5.878;2023-06-04T02:11:55;15.50;73.20
39033;DHT22;24794;51.982;5.878;2023-06-04T02:13:00;15.50;73.30
39033;DHT22;24794;51.982;5.878;2023-06-04T02:14:05;15.50;73.30
39033;DHT22;24794;51.982;5.878;2023-06-04T02:15:06;15.50;73.20
39033;DHT22;24794;51.982;5.878;2023-06-04T02:16:07;15.50;73.20
39033;DHT22;24794;51.982;5.878;2023-06-04T02:17:08;15.50;73.30
39033;DHT22;24794;51.982;5.878;2023-06-04T02:18:19;15.50;73.40
39033;DHT22;24794;51.982;5.878;2023-06-04T02:19:22;15.50;73.40
39033;DHT22;24794;51.982;5.878;2023-06-04T02:20:23;15.50;73.50
39033;DHT22;24794;51.982;5.878;2023-06-04T02:21:23;15.40;73.40
39033;DHT22;24794;51.982;5.878;2023-06-04T02:22:24;15.40;73.50
39033;DHT22;24794;51.982;5.878;2023-06-04T02:23:25;15.40;73.50
39033;DHT22;24794;51.982;5.878;2023-06-04T02:24:26;15.40;73.50
39033;DHT22;24794;51.982;5.878;2023-06-04T02:25:26;15.40;73.50
39033;DHT22;24794;51.982;5.878;2023-06-04T02:26:27;15.40;73.60
39033;DHT22;24794;51.982;5.878;2023-06-04T02:27:27;15.40;73.60
39033;DHT22;24794;51.982;5.878;2023-06-04T02:28:28;15.40;73.60
39033;DHT22;24794;51.982;5.878;2023-06-04T02:29:28;15.40;73.60
39033;DHT22;24794;51.982;5.878;2023-06-04T02:30:29;15.40;73.60
39033;DHT22;24794;51.982;5.878;2023-06-04T02:31:29;15.40;73.70
39033;DHT22;24794;51.982;5.878;2023-06-04T02:32:31;15.30;73.80
39033;DHT22;24794;51.982;5.878;2023-06-04T02:33:31;15.30;73.80
39033;DHT22;24794;51.982;5.878;2023-06-04T02:34:32;15.30;73.80
39033;DHT22;24794;51.982;5.878;2023-06-04T02:35:34;15.30;73.90
39033;DHT22;24794;51.982;5.878;2023-06-04T02:36:34;15.30;73.90
39033;DHT22;24794;51.982;5.878;2023-06-04T02:37:35;15.30;74.00
39033;DHT22;24794;51.982;5.878;2023-06-04T02:38:36;15.30;74.00
39033;DHT22;24794;51.982;5.878;2023-06-04T02:39:36;15.30;74.00
39033;DHT22;24794;51.982;5.878;2023-06-04T02:40:37;15.30;74.10
39033;DHT22;24794;51.982;5.878;2023-06-04T02:41:37;15.30;74.10
39033;DHT22;24794;51.982;5.878;2023-06-04T02:42:38;15.20;74.10
39033;DHT22;24794;51.982;5.878;2023-06-04T02:43:38;15.20;74.10
39033;DHT22;24794;51.982;5.878;2023-06-04T02:44:39;15.20;74.20
39033;DHT22;24794;51.982;5.878;2023-06-04T02:45:39;15.20;74.30
39033;DHT22;24794;51.982;5.878;2023-06-04T02:46:40;15.20;74.30
39033;DHT22;24794;51.982;5.878;2023-06-04T02:47:40;15.20;74.40
39033;DHT22;24794;51.982;5.878;2023-06-04T02:48:41;15.20;74.40
39033;DHT22;24794;51.982;5.878;2023-06-04T02:49:41;15.20;74.50
39033;DHT22;24794;51.982;5.878;2023-06-04T02:50:42;15.20;74.50
39033;DHT22;24794;51.982;5.878;2023-06-04T02:51:43;15.20;74.40
39033;DHT22;24794;51.982;5.878;2023-06-04T02:52:44;15.20;74.50
39033;DHT22;24794;51.982;5.878;2023-06-04T02:53:44;15.20;74.40
39033;DHT22;24794;51.982;5.878;2023-06-04T02:54:45;15.20;74.40
39033;DHT22;24794;51.982;5.878;2023-06-04T02:55:46;15.20;74.50
39033;DHT22;24794;51.982;5.878;2023-06-04T02:56:46;15.20;74.40
39033;DHT22;24794;51.982;5.878;2023-06-04T02:57:49;15.20;74.50
39033;DHT22;24794;51.982;5.878;2023-06-04T02:58:55;15.20;74.50
39033;DHT22;24794;51.982;5.878;2023-06-04T02:59:56;15.10;74.60
39033;DHT22;24794;51.982;5.878;2023-06-04T03:00:57;15.10;74.60
39033;DHT22;24794;51.982;5.878;2023-06-04T03:01:57;15.10;74.60
39033;DHT22;24794;51.982;5.878;2023-06-04T03:02:58;15.10;74.70
39033;DHT22;24794;51.982;5.878;2023-06-04T03:04:01;15.10;74.70
39033;DHT22;24794;51.982;5.878;2023-06-04T03:05:12;15.10;74.80
39033;DHT22;24794;51.982;5.878;2023-06-04T03:06:13;15.00;74.80
39033;DHT22;24794;51.982;5.878;2023-06-04T03:07:14;15.00;74.90
39033;DHT22;24794;51.982;5.878;2023-06-04T03:08:15;15.00;74.90
39033;DHT22;24794;51.982;5.878;2023-06-04T03:09:16;15.00;75.10
39033;DHT22;24794;51.982;5.878;2023-06-04T03:10:16;15.00;75.10
39033;DHT22;24794;51.982;5.878;2023-06-04T03:11:20;15.00;75.10
39033;DHT22;24794;51.982;5.878;2023-06-04T03:12:23;15.00;75.20
39033;DHT22;24794;51.982;5.878;2023-06-04T03:13:23;15.00;75.20
39033;DHT22;24794;51.982;5.878;2023-06-04T03:14:24;15.00;75.20
39033;DHT22;24794;51.982;5.878;2023-06-04T03:15:32;15.00;75.30
39033;DHT22;24794;51.982;5.878;2023-06-04T03:16:33;15.00;75.30
39033;DHT22;24794;51.982;5.878;2023-06-04T03:17:33;14.90;75.30
39033;DHT22;24794;51.982;5.878;2023-06-04T03:18:34;15.00;75.40
39033;DHT22;24794;51.982;5.878;2023-06-04T03:19:38;14.90;75.30
39033;DHT22;24794;51.982;5.878;2023-06-04T03:20:39;14.90;75.50
39033;DHT22;24794;51.982;5.878;2023-06-04T03:21:39;14.90;75.50
39033;DHT22;24794;51.982;5.878;2023-06-04T03:22:40;14.90;75.50
39033;DHT22;24794;51.982;5.878;2023-06-04T03:23:40;14.90;75.60
39033;DHT22;24794;51.982;5.878;2023-06-04T03:24:41;14.80;75.60
39033;DHT22;24794;51.982;5.878;2023-06-04T03:25:42;14.80;75.60
39033;DHT22;24794;51.982;5.878;2023-06-04T03:26:42;14.80;75.70
39033;DHT22;24794;51.982;5.878;2023-06-04T03:27:43;14.80;75.90
39033;DHT22;24794;51.982;5.878;2023-06-04T03:28:43;14.80;75.90
39033;DHT22;24794;51.982;5.878;2023-06-04T03:29:44;14.80;75.90
39033;DHT22;24794;51.982;5.878;2023-06-04T03:30:46;14.80;75.90
39033;DHT22;24794;51.982;5.878;2023-06-04T03:31:46;14.80;76.00
39033;DHT22;24794;51.982;5.878;2023-06-04T03:32:47;14.80;76.00
39033;DHT22;24794;51.982;5.878;2023-06-04T03:33:47;14.80;76.10
39033;DHT22;24794;51.982;5.878;2023-06-04T03:34:48;14.80;76.00
39033;DHT22;24794;51.982;5.878;2023-06-04T03:35:50;14.80;76.00
39033;DHT22;24794;51.982;5.878;2023-06-04T03:36:52;14.80;76.10
39033;DHT22;24794;51.982;5.878;2023-06-04T03:37:52;14.80;76.10
39033;DHT22;24794;51.982;5.878;2023-06-04T03:38:53;14.80;76.10
39033;DHT22;24794;51.982;5.878;2023-06-04T03:39:53;14.80;76.20
39033;DHT22;24794;51.982;5.878;2023-06-04T03:40:54;14.80;76.20
39033;DHT22;24794;51.982;5.878;2023-06-04T03:41:55;14.80;76.30
39033;DHT22;24794;51.982;5.878;2023-06-04T03:42:55;14.80;76.30
39033;DHT22;24794;51.982;5.878;2023-06-04T03:43:56;14.70;76.40
39033;DHT22;24794;51.982;5.878;2023-06-04T03:44:56;14.80;76.50
39033;DHT22;24794;51.982;5.878;2023-06-04T03:45:58;14.70;76.50
39033;DHT22;24794;51.982;5.878;2023-06-04T03:46:59;14.70;76.60
39033;DHT22;24794;51.982;5.878;2023-06-04T03:47:59;14.70;76.60
39033;DHT22;24794;51.982;5.878;2023-06-04T03:49:00;14.70;76.70
39033;DHT22;24794;51.982;5.878;2023-06-04T03:50:01;14.70;76.80
39033;DHT22;24794;51.982;5.878;2023-06-04T03:51:02;14.70;76.80
39033;DHT22;24794;51.982;5.878;2023-06-04T03:52:03;14.60;77.40
39033;DHT22;24794;51.982;5.878;2023-06-04T03:53:03;14.60;76.80
39033;DHT22;24794;51.982;5.878;2023-06-04T03:54:07;14.70;76.90
39033;DHT22;24794;51.982;5.878;2023-06-04T03:55:08;14.60;76.90
39033;DHT22;24794;51.982;5.878;2023-06-04T03:56:09;14.60;76.90
39033;DHT22;24794;51.982;5.878;2023-06-04T03:57:09;14.60;77.00
39033;DHT22;24794;51.982;5.878;2023-06-04T03:58:10;14.60;77.10
39033;DHT22;24794;51.982;5.878;2023-06-04T03:59:11;14.60;77.10
39033;DHT22;24794;51.982;5.878;2023-06-04T04:00:13;14.60;77.20
39033;DHT22;24794;51.982;5.878;2023-06-04T04:01:14;14.60;77.20
39033;DHT22;24794;51.982;5.878;2023-06-04T04:02:14;14.60;77.40
39033;DHT22;24794;51.982;5.878;2023-06-04T04:03:15;14.60;77.40
39033;DHT22;24794;51.982;5.878;2023-06-04T04:04:16;14.60;77.50
39033;DHT22;24794;51.982;5.878;2023-06-04T04:05:16;14.60;77.50
39033;DHT22;24794;51.982;5.878;2023-06-04T04:06:18;14.50;77.50
39033;DHT22;24794;51.982;5.878;2023-06-04T04:07:18;14.50;77.50
39033;DHT22;24794;51.982;5.878;2023-06-04T04:08:19;14.50;77.60
39033;DHT22;24794;51.982;5.878;2023-06-04T04:09:21;14.50;77.60
39033;DHT22;24794;51.982;5.878;2023-06-04T04:10:21;14.50;77.70
39033;DHT22;24794;51.982;5.878;2023-06-04T04:11:22;14.50;77.80
39033;DHT22;24794;51.982;5.878;2023-06-04T04:12:22;14.50;77.90
39033;DHT22;24794;51.982;5.878;2023-06-04T04:13:23;14.40;77.90
39033;DHT22;24794;51.982;5.878;2023-06-04T04:14:24;14.40;78.00
39033;DHT22;24794;51.982;5.878;2023-06-04T04:15:24;14.50;78.10
39033;DHT22;24794;51.982;5.878;2023-06-04T04:16:25;14.40;78.10
39033;DHT22;24794;51.982;5.878;2023-06-04T04:17:27;14.50;78.30
39033;DHT22;24794;51.982;5.878;2023-06-04T04:18:31;14.50;78.40
39033;DHT22;24794;51.982;5.878;2023-06-04T04:19:32;14.40;78.40
39033;DHT22;24794;51.982;5.878;2023-06-04T04:20:33;14.50;78.40
39033;DHT22;24794;51.982;5.878;2023-06-04T04:21:35;14.40;78.40
39033;DHT22;24794;51.982;5.878;2023-06-04T04:22:41;14.40;78.60
39033;DHT22;24794;51.982;5.878;2023-06-04T04:23:44;14.40;78.60
39033;DHT22;24794;51.982;5.878;2023-06-04T04:24:45;14.40;78.60
39033;DHT22;24794;51.982;5.878;2023-06-04T04:25:45;14.40;78.70
39033;DHT22;24794;51.982;5.878;2023-06-04T04:26:47;14.40;78.80
39033;DHT22;24794;51.982;5.878;2023-06-04T04:27:48;14.40;78.80
39033;DHT22;24794;51.982;5.878;2023-06-04T04:28:49;14.40;79.00
39033;DHT22;24794;51.982;5.878;2023-06-04T04:29:50;14.40;79.10
39033;DHT22;24794;51.982;5.878;2023-06-04T04:30:50;14.40;79.20
39033;DHT22;24794;51.982;5.878;2023-06-04T04:31:51;14.40;79.20
39033;DHT22;24794;51.982;5.878;2023-06-04T04:32:52;14.40;79.20
39033;DHT22;24794;51.982;5.878;2023-06-04T04:33:55;14.30;79.30
39033;DHT22;24794;51.982;5.878;2023-06-04T04:34:55;14.30;79.30
39033;DHT22;24794;51.982;5.878;2023-06-04T04:35:57;14.40;79.50
39033;DHT22;24794;51.982;5.878;2023-06-04T04:36:59;14.40;79.50
39033;DHT22;24794;51.982;5.878;2023-06-04T04:38:00;14.40;79.60
39033;DHT22;24794;51.982;5.878;2023-06-04T04:39:03;14.40;79.60
39033;DHT22;24794;51.982;5.878;2023-06-04T04:40:05;14.40;79.70
39033;DHT22;24794;51.982;5.878;2023-06-04T04:41:06;14.40;79.60
39033;DHT22;24794;51.982;5.878;2023-06-04T04:42:07;14.40;79.70
39033;DHT22;24794;51.982;5.878;2023-06-04T04:43:08;14.40;79.80
39033;DHT22;24794;51.982;5.878;2023-06-04T04:44:08;14.40;79.90
39033;DHT22;24794;51.982;5.878;2023-06-04T04:45:10;14.40;79.90
39033;DHT22;24794;51.982;5.878;2023-06-04T04:46:10;14.40;79.90
39033;DHT22;24794;51.982;5.878;2023-06-04T04:47:11;14.40;79.90
39033;DHT22;24794;51.982;5.878;2023-06-04T04:48:11;14.50;80.00
39033;DHT22;24794;51.982;5.878;2023-06-04T04:49:12;14.50;80.00
39033;DHT22;24794;51.982;5.878;2023-06-04T04:50:13;14.50;80.10
39033;DHT22;24794;51.982;5.878;2023-06-04T04:51:13;14.50;80.10
39033;DHT22;24794;51.982;5.878;2023-06-04T04:52:14;14.50;80.10
39033;DHT22;24794;51.982;5.878;2023-06-04T04:53:14;14.60;80.20
39033;DHT22;24794;51.982;5.878;2023-06-04T04:54:15;14.50;80.10
39033;DHT22;24794;51.982;5.878;2023-06-04T04:55:15;14.60;80.20
39033;DHT22;24794;51.982;5.878;2023-06-04T04:56:16;14.60;80.20
39033;DHT22;24794;51.982;5.878;2023-06-04T04:57:16;14.60;80.30
39033;DHT22;24794;51.982;5.878;2023-06-04T04:58:17;14.60;80.30
39033;DHT22;24794;51.982;5.878;2023-06-04T04:59:18;14.60;80.30
39033;DHT22;24794;51.982;5.878;2023-06-04T05:00:18;14.60;80.30
39033;DHT22;24794;51.982;5.878;2023-06-04T05:01:19;14.60;80.30
39033;DHT22;24794;51.982;5.878;2023-06-04T05:02:20;14.60;80.30
39033;DHT22;24794;51.982;5.878;2023-06-04T05:03:20;14.70;80.50
39033;DHT22;24794;51.982;5.878;2023-06-04T05:04:21;14.70;80.40
39033;DHT22;24794;51.982;5.878;2023-06-04T05:05:21;14.70;80.40
39033;DHT22;24794;51.982;5.878;2023-06-04T05:06:22;14.70;80.40
39033;DHT22;24794;51.982;5.878;2023-06-04T05:07:22;14.70;80.40
39033;DHT22;24794;51.982;5.878;2023-06-04T05:08:25;14.80;80.40
39033;DHT22;24794;51.982;5.878;2023-06-04T05:09:25;14.80;80.40
39033;DHT22;24794;51.982;5.878;2023-06-04T05:10:26;14.80;80.40
39033;DHT22;24794;51.982;5.878;2023-06-04T05:11:26;14.80;80.40
39033;DHT22;24794;51.982;5.878;2023-06-04T05:12:30;14.90;80.40
39033;DHT22;24794;51.982;5.878;2023-06-04T05:13:32;14.90;80.40
39033;DHT22;24794;51.982;5.878;2023-06-04T05:14:33;14.90;80.30
39033;DHT22;24794;51.982;5.878;2023-06-04T05:15:35;15.00;80.40
39033;DHT22;24794;51.982;5.878;2023-06-04T05:16:36;15.00;80.40
39033;DHT22;24794;51.982;5.878;2023-06-04T05:17:38;15.00;80.40
39033;DHT22;24794;51.982;5.878;2023-06-04T05:18:41;15.00;80.30
39033;DHT22;24794;51.982;5.878;2023-06-04T05:19:44;15.00;80.30
39033;DHT22;24794;51.982;5.878;2023-06-04T05:20:47;15.00;80.20
39033;DHT22;24794;51.982;5.878;2023-06-04T05:21:48;15.00;80.30
39033;DHT22;24794;51.982;5.878;2023-06-04T05:22:49;15.00;80.30
39033;DHT22;24794;51.982;5.878;2023-06-04T05:23:49;15.10;80.40
39033;DHT22;24794;51.982;5.878;2023-06-04T05:24:50;15.10;80.40
39033;DHT22;24794;51.982;5.878;2023-06-04T05:25:52;15.10;80.40
39033;DHT22;24794;51.982;5.878;2023-06-04T05:26:52;15.10;80.40
39033;DHT22;24794;51.982;5.878;2023-06-04T05:27:53;15.10;80.40
39033;DHT22;24794;51.982;5.878;2023-06-04T05:28:55;15.10;80.30
39033;DHT22;24794;51.982;5.878;2023-06-04T05:29:56;15.20;80.40
39033;DHT22;24794;51.982;5.878;2023-06-04T05:30:56;15.20;80.30
39033;DHT22;24794;51.982;5.878;2023-06-04T05:31:59;15.20;80.30
39033;DHT22;24794;51.982;5.878;2023-06-04T05:32:59;15.20;80.30
39033;DHT22;24794;51.982;5.878;2023-06-04T05:34:00;15.20;80.20
39033;DHT22;24794;51.982;5.878;2023-06-04T05:35:01;15.20;80.10
39033;DHT22;24794;51.982;5.878;2023-06-04T05:36:04;15.20;80.10
39033;DHT22;24794;51.982;5.878;2023-06-04T05:37:05;15.30;80.20
39033;DHT22;24794;51.982;5.878;2023-06-04T05:38:08;15.30;80.20
39033;DHT22;24794;51.982;5.878;2023-06-04T05:39:09;15.40;80.30
39033;DHT22;24794;51.982;5.878;2023-06-04T05:40:10;15.40;80.30
39033;DHT22;24794;51.982;5.878;2023-06-04T05:41:11;15.30;80.20
39033;DHT22;24794;51.982;5.878;2023-06-04T05:42:12;15.40;80.30
39033;DHT22;24794;51.982;5.878;2023-06-04T05:43:14;15.40;80.30
39033;DHT22;24794;51.982;5.878;2023-06-04T05:44:14;15.50;80.30
39033;DHT22;24794;51.982;5.878;2023-06-04T05:45:15;15.50;80.20
39033;DHT22;24794;51.982;5.878;2023-06-04T05:46:16;15.50;80.20
39033;DHT22;24794;51.982;5.878;2023-06-04T05:47:17;15.50;80.20
39033;DHT22;24794;51.982;5.878;2023-06-04T05:48:18;15.50;80.80
39033;DHT22;24794;51.982;5.878;2023-06-04T05:49:19;15.60;80.10
39033;DHT22;24794;51.982;5.878;2023-06-04T05:50:20;15.60;80.10
39033;DHT22;24794;51.982;5.878;2023-06-04T05:51:21;15.60;80.20
39033;DHT22;24794;51.982;5.878;2023-06-04T05:52:21;15.70;80.10
39033;DHT22;24794;51.982;5.878;2023-06-04T05:53:22;15.70;80.10
39033;DHT22;24794;51.982;5.878;2023-06-04T05:54:22;15.80;80.10
39033;DHT22;24794;51.982;5.878;2023-06-04T05:55:23;15.80;80.00
39033;DHT22;24794;51.982;5.878;2023-06-04T05:56:23;15.80;80.00
39033;DHT22;24794;51.982;5.878;2023-06-04T05:57:26;15.90;80.00
39033;DHT22;24794;51.982;5.878;2023-06-04T05:58:26;15.90;79.80
39033;DHT22;24794;51.982;5.878;2023-06-04T05:59:27;15.90;79.80
39033;DHT22;24794;51.982;5.878;2023-06-04T06:00:27;16.00;79.80
39033;DHT22;24794;51.982;5.878;2023-06-04T06:01:28;16.00;79.70
39033;DHT22;24794;51.982;5.878;2023-06-04T06:02:29;16.10;79.60
39033;DHT22;24794;51.982;5.878;2023-06-04T06:03:32;16.10;79.60
39033;DHT22;24794;51.982;5.878;2023-06-04T06:04:33;16.20;79.50
39033;DHT22;24794;51.982;5.878;2023-06-04T06:05:33;16.20;79.50
39033;DHT22;24794;51.982;5.878;2023-06-04T06:06:34;16.20;79.50
39033;DHT22;24794;51.982;5.878;2023-06-04T06:07:35;16.30;79.50
39033;DHT22;24794;51.982;5.878;2023-06-04T06:08:36;16.30;80.10
39033;DHT22;24794;51.982;5.878;2023-06-04T06:09:37;16.30;79.30
39033;DHT22;24794;51.982;5.878;2023-06-04T06:10:38;16.40;79.30
39033;DHT22;24794;51.982;5.878;2023-06-04T06:11:38;16.40;79.90
39033;DHT22;24794;51.982;5.878;2023-06-04T06:12:39;16.40;79.30
39033;DHT22;24794;51.982;5.878;2023-06-04T06:13:40;16.50;79.30
39033;DHT22;24794;51.982;5.878;2023-06-04T06:14:40;16.50;79.20
39033;DHT22;24794;51.982;5.878;2023-06-04T06:15:41;16.60;79.20
39033;DHT22;24794;51.982;5.878;2023-06-04T06:16:42;16.60;79.30
39033;DHT22;24794;51.982;5.878;2023-06-04T06:17:43;16.60;79.20
39033;DHT22;24794;51.982;5.878;2023-06-04T06:18:43;16.70;79.20
39033;DHT22;24794;51.982;5.878;2023-06-04T06:19:44;16.70;79.10
39033;DHT22;24794;51.982;5.878;2023-06-04T06:20:45;16.80;79.10
39033;DHT22;24794;51.982;5.878;2023-06-04T06:21:45;16.80;78.80
39033;DHT22;24794;51.982;5.878;2023-06-04T06:22:46;16.80;78.60
39033;DHT22;24794;51.982;5.878;2023-06-04T06:23:46;16.80;78.60
39033;DHT22;24794;51.982;5.878;2023-06-04T06:24:47;16.90;78.70
39033;DHT22;24794;51.982;5.878;2023-06-04T06:25:51;16.90;78.50
39033;DHT22;24794;51.982;5.878;2023-06-04T06:26:52;16.90;78.20
39033;DHT22;24794;51.982;5.878;2023-06-04T06:27:52;17.00;78.20
39033;DHT22;24794;51.982;5.878;2023-06-04T06:28:53;17.00;78.10
39033;DHT22;24794;51.982;5.878;2023-06-04T06:29:53;17.00;78.10